Time;durP1;ratioP1;P1;durP2;ratioP2;P2;SDS_P1;SDS_P2;PMS_P1;PMS_P2;Temp;Humidity;BMP_temperature;BMP_pressure;BME280_temperature;BME280_humidity;BME280_pressure;Samples;Min_cycle;Max_cycle;Signal;HPM_P1;HPM_P2
2021/05/04 00:00:50;;;;;;;;;;;;;;;;;;2106485;28;42957;-67
2021/05/04 00:01:51;;;;;;;;;;;;;;;;;;2106430;28;45292;-67
2021/05/04 00:02:52;;;;;;;;;;;;;;;;;;2106281;28;45283;-67
2021/05/04 00:03:53;;;;;;;;;;;;;;;;;;2106680;28;44152;-67
2021/05/04 00:04:54;;;;;;;;;;;;;;;;;;2107018;28;43931;-67
2021/05/04 00:05:55;;;;;;;;;;;;;;;;;;2107150;28;44151;-67
2021/05/04 00:06:56;;;;;;;;;;;;;;;;;;2106236;28;42697;-65
2021/05/04 00:07:57;;;;;;;;;;;;;;;;;;2106866;28;42542;-65
2021/05/04 00:08:58;;;;;;;;;;;;;;;;;;2106471;28;43995;-65
2021/05/04 00:09:59;;;;;;;;;;;;;;;;;;2106499;28;45209;-64
2021/05/04 00:11:00;;;;;;;;;;;;;;;;;;2114892;28;45458;-66
2021/05/04 00:12:00;;;;;;;;;;;;;;;;;;2106935;28;44169;-66
2021/05/04 00:13:01;;;;;;;;;;;;;;;;;;2106392;28;41925;-66
2021/05/04 00:14:03;;;;;;;;;;;;;;;;;;2098116;28;44305;-66
2021/05/04 00:15:06;;;;;;;;;;;;;;;;;;2098263;28;45456;-66
2021/05/04 00:16:06;;;;;;;;;;;;;;;;;;2098344;28;43987;-66
2021/05/04 00:17:07;;;;;;;;;;;;;;;;;;2106583;28;42563;-66
2021/05/04 00:18:09;;;;;;;;;;;;;;;;;;2106482;28;45290;-66
2021/05/04 00:19:10;;;;;;;;;;;;;;;;;;2107001;28;43435;-66
2021/05/04 00:20:11;;;;;;;;;;;;;;;;;;2109531;28;45688;-66
2021/05/04 00:21:12;;;;;;;;;;;;;;;;;;2108885;28;46701;-66
2021/05/04 00:22:13;;;;;;;;;;;;;;;;;;2109134;28;46392;-66
2021/05/04 00:23:14;;;;;;;;;;;;;;;;;;2101300;28;45285;-66
2021/05/04 00:24:15;;;;;;;;;;;;;;;;;;2101237;28;45284;-65
2021/05/04 00:25:16;;;;;;;;;;;;;;;;;;2101489;28;46675;-65
2021/05/04 00:26:17;;;;;;;;;;;;;;;;;;2109266;28;45368;-64
2021/05/04 00:27:18;;;;;;;;;;;;;;;;;;2101137;28;45413;-66
2021/05/04 00:28:19;;;;;;;;;;;;;;;;;;2108237;28;45241;-67
2021/05/04 00:29:29;;;;;;;;;;;;;;;;;;2108695;28;45678;-67
2021/05/04 00:30:30;;;;;;;;;;;;;;;;;;2106835;28;46632;-67
2021/05/04 00:31:31;;;;;;;;;;;;;;;;;;2107160;28;46548;-67
2021/05/04 00:32:31;;;;;;;;;;;;;;;;;;2107056;28;45386;-65
2021/05/04 00:33:32;;;;;;;;;;;;;;;;;;2107338;28;45382;-68
2021/05/04 00:34:33;;;;;;;;;;;;;;;;;;2106630;28;45330;-65
2021/05/04 00:35:34;;;;;;;;;;;;;;;;;;2106678;28;45385;-65
2021/05/04 00:36:35;;;;;;;;;;;;;;;;;;2106846;28;46508;-65
2021/05/04 00:37:36;;;;;;;;;;;;;;;;;;2106404;28;45672;-65
2021/05/04 00:38:37;;;;;;;;;;;;;;;;;;2106252;28;47307;-66
2021/05/04 00:39:38;;;;;;;;;;;;;;;;;;2106501;28;46886;-68
2021/05/04 00:40:39;;;;;;;;;;;;;;;;;;2106165;28;45781;-67
2021/05/04 00:41:39;;;;;;;;;;;;;;;;;;2106533;28;44133;-67
2021/05/04 00:42:40;;;;;;;;;;;;;;;;;;2106141;28;45814;-65
2021/05/04 00:43:48;;;;;;;;;;;;;;;;;;2106426;28;46199;-67
2021/05/04 00:44:48;;;;;;;;;;;;;;;;;;2098732;28;46500;-67
2021/05/04 00:45:49;;;;;;;;;;;;;;;;;;2106313;28;45838;-65
2021/05/04 00:46:50;;;;;;;;;;;;;;;;;;2097887;28;45418;-65
2021/05/04 00:47:51;;;;;;;;;;;;;;;;;;2106095;28;44544;-65
2021/05/04 00:48:52;;;;;;;;;;;;;;;;;;2106103;28;44062;-68
2021/05/04 00:49:53;;;;;;;;;;;;;;;;;;2097932;28;46945;-65
2021/05/04 00:50:54;;;;;;;;;;;;;;;;;;2097944;28;47243;-65
2021/05/04 00:51:55;;;;;;;;;;;;;;;;;;2098314;28;46816;-65
2021/05/04 00:52:56;;;;;;;;;;;;;;;;;;2107251;28;44563;-67
2021/05/04 00:53:57;;;;;;;;;;;;;;;;;;2107594;28;45667;-65
2021/05/04 00:54:58;;;;;;;;;;;;;;;;;;2106032;28;46012;-67
2021/05/04 00:56:00;;;;;;;;;;;;;;;;;;2106218;28;45834;-68
2021/05/04 00:57:01;;;;;;;;;;;;;;;;;;2097818;28;46922;-67
2021/05/04 00:58:02;;;;;;;;;;;;;;;;;;2097943;28;46692;-65
2021/05/04 00:59:03;;;;;;;;;;;;;;;;;;2106259;28;46902;-66
2021/05/04 01:00:05;;;;;;;;;;;;;;;;;;2114252;28;44046;-66
2021/05/04 01:01:06;;;;;;;;;;;;;;;;;;2105998;28;43971;-66
2021/05/04 01:02:07;;;;;;;;;;;;;;;;;;2097614;28;45097;-66
2021/05/04 01:03:09;;;;;;;;;;;;;;;;;;2097655;28;45808;-66
2021/05/04 01:04:11;;;;;;;;;;;;;;;;;;2098027;28;44170;-66
2021/05/04 01:05:12;;;;;;;;;;;;;;;;;;2105891;28;45259;-66
2021/05/04 01:06:13;;;;;;;;;;;;;;;;;;2097803;28;45305;-67
2021/05/04 01:07:14;;;;;;;;;;;;;;;;;;2096613;28;41090;-66
2021/05/04 01:08:15;;;;;;;;;;;;;;;;;;2097778;28;43222;-67
2021/05/04 01:09:17;;;;;;;;;;;;;;;;;;2097800;28;44090;-66
2021/05/04 01:10:18;;;;;;;;;;;;;;;;;;2106066;28;41152;-67
2021/05/04 01:11:19;;;;;;;;;;;;;;;;;;2105911;28;45241;-66
2021/05/04 01:12:20;;;;;;;;;;;;;;;;;;2097605;28;44166;-66
2021/05/04 01:13:21;;;;;;;;;;;;;;;;;;2097583;28;44025;-67
2021/05/04 01:14:23;;;;;;;;;;;;;;;;;;2097695;28;45203;-66
2021/05/04 01:15:24;;;;;;;;;;;;;;;;;;2106016;28;44178;-66
2021/05/04 01:16:25;;;;;;;;;;;;;;;;;;2097699;28;45234;-66
2021/05/04 01:17:26;;;;;;;;;;;;;;;;;;2097838;28;43667;-66
2021/05/04 01:18:27;;;;;;;;;;;;;;;;;;2097882;28;44305;-66
2021/05/04 01:19:28;;;;;;;;;;;;;;;;;;2097759;28;44116;-66
2021/05/04 01:20:29;;;;;;;;;;;;;;;;;;2097906;28;45421;-66
2021/05/04 01:21:30;;;;;;;;;;;;;;;;;;2097587;28;43764;-66
2021/05/04 01:22:31;;;;;;;;;;;;;;;;;;2105818;28;46562;-66
2021/05/04 01:23:33;;;;;;;;;;;;;;;;;;2106668;28;46772;-66
2021/05/04 01:24:34;;;;;;;;;;;;;;;;;;2105858;28;45395;-66
2021/05/04 01:25:35;;;;;;;;;;;;;;;;;;2097758;28;45444;-66
2021/05/04 01:26:36;;;;;;;;;;;;;;;;;;2097484;28;43987;-66
2021/05/04 01:27:37;;;;;;;;;;;;;;;;;;2106047;28;46377;-66
2021/05/04 01:28:38;;;;;;;;;;;;;;;;;;2105781;28;46194;-65
2021/05/04 01:29:39;;;;;;;;;;;;;;;;;;2097592;28;46618;-65
2021/05/04 01:30:40;;;;;;;;;;;;;;;;;;2097039;28;45441;-66
2021/05/04 01:31:41;;;;;;;;;;;;;;;;;;2097522;28;46523;-66
2021/05/04 01:32:42;;;;;;;;;;;;;;;;;;2106291;28;45020;-65
2021/05/04 01:33:43;;;;;;;;;;;;;;;;;;2114670;28;45708;-66
2021/05/04 01:34:44;;;;;;;;;;;;;;;;;;2105851;28;45696;-66
2021/05/04 01:35:45;;;;;;;;;;;;;;;;;;2097154;28;45472;-65
2021/05/04 01:36:46;;;;;;;;;;;;;;;;;;2105925;28;45296;-67
2021/05/04 01:37:47;;;;;;;;;;;;;;;;;;2105936;28;44126;-66
2021/05/04 01:38:48;;;;;;;;;;;;;;;;;;2097505;28;45364;-67
2021/05/04 01:39:50;;;;;;;;;;;;;;;;;;2105973;28;44995;-67
2021/05/04 01:40:51;;;;;;;;;;;;;;;;;;2106330;28;45541;-67
2021/05/04 01:41:52;;;;;;;;;;;;;;;;;;2106115;28;44269;-67
2021/05/04 01:42:53;;;;;;;;;;;;;;;;;;2105765;28;46968;-67
2021/05/04 01:43:54;;;;;;;;;;;;;;;;;;2105864;28;45639;-67
2021/05/04 01:44:55;;;;;;;;;;;;;;;;;;2097381;28;44443;-67
2021/05/04 01:45:55;;;;;;;;;;;;;;;;;;2106269;28;46095;-66
2021/05/04 01:46:56;;;;;;;;;;;;;;;;;;2104638;28;46217;-66
2021/05/04 01:47:57;;;;;;;;;;;;;;;;;;2097739;28;44956;-66
2021/05/04 01:48:59;;;;;;;;;;;;;;;;;;2105636;28;45846;-66
2021/05/04 01:50:00;;;;;;;;;;;;;;;;;;2105692;28;45627;-66
2021/05/04 01:51:01;;;;;;;;;;;;;;;;;;2105750;28;45851;-66
2021/05/04 01:52:03;;;;;;;;;;;;;;;;;;2105673;28;45818;-65
2021/05/04 01:53:04;;;;;;;;;;;;;;;;;;2105701;28;45887;-66
2021/05/04 01:54:05;;;;;;;;;;;;;;;;;;2105916;28;46873;-66
2021/05/04 01:55:07;;;;;;;;;;;;;;;;;;2106130;28;45805;-68
2021/05/04 01:56:08;;;;;;;;;;;;;;;;;;2105807;28;46122;-68
2021/05/04 01:57:09;;;;;;;;;;;;;;;;;;2105658;28;45685;-67
2021/05/04 01:58:10;;;;;;;;;;;;;;;;;;2106386;28;44472;-68
2021/05/04 01:59:11;;;;;;;;;;;;;;;;;;2106271;28;45829;-68
2021/05/04 02:00:12;;;;;;;;;;;;;;;;;;2105508;28;46292;-68
2021/05/04 02:01:13;;;;;;;;;;;;;;;;;;2105552;28;46137;-66
2021/05/04 02:02:14;;;;;;;;;;;;;;;;;;2105537;28;44438;-68
2021/05/04 02:03:15;;;;;;;;;;;;;;;;;;2105697;28;45615;-66
2021/05/04 02:04:16;;;;;;;;;;;;;;;;;;2106030;28;46051;-66
2021/05/04 02:05:17;;;;;;;;;;;;;;;;;;2105912;28;43891;-67
2021/05/04 02:06:18;;;;;;;;;;;;;;;;;;2105678;28;44639;-66
2021/05/04 02:07:19;;;;;;;;;;;;;;;;;;2105651;28;45365;-66
2021/05/04 02:08:19;;;;;;;;;;;;;;;;;;2105938;28;44250;-66
2021/05/04 02:09:20;;;;;;;;;;;;;;;;;;2105735;28;43644;-66
2021/05/04 02:10:21;;;;;;;;;;;;;;;;;;2105359;28;44134;-66
2021/05/04 02:11:22;;;;;;;;;;;;;;;;;;2105549;28;43025;-65
2021/05/04 02:12:23;;;;;;;;;;;;;;;;;;2105408;28;44332;-65
2021/05/04 02:13:24;;;;;;;;;;;;;;;;;;2105712;28;44984;-66
2021/05/04 02:14:25;;;;;;;;;;;;;;;;;;2105715;28;43043;-66
2021/05/04 02:15:26;;;;;;;;;;;;;;;;;;2105694;28;44414;-65
2021/05/04 02:16:27;;;;;;;;;;;;;;;;;;2105548;28;44028;-66
2021/05/04 02:17:28;;;;;;;;;;;;;;;;;;2097327;28;42526;-64
2021/05/04 02:18:29;;;;;;;;;;;;;;;;;;2105664;28;42522;-66
2021/05/04 02:19:30;;;;;;;;;;;;;;;;;;2105710;28;44142;-66
2021/05/04 02:20:31;;;;;;;;;;;;;;;;;;2097049;28;44514;-66
2021/05/04 02:21:32;;;;;;;;;;;;;;;;;;2105553;28;41786;-66
2021/05/04 02:22:33;;;;;;;;;;;;;;;;;;2105643;28;42964;-66
2021/05/04 02:23:36;;;;;;;;;;;;;;;;;;2105289;28;44102;-66
2021/05/04 02:24:37;;;;;;;;;;;;;;;;;;2097076;28;45034;-66
2021/05/04 02:25:38;;;;;;;;;;;;;;;;;;2105793;28;44361;-66
2021/05/04 02:26:39;;;;;;;;;;;;;;;;;;2106027;28;45480;-66
2021/05/04 02:27:39;;;;;;;;;;;;;;;;;;2105596;28;45479;-66
2021/05/04 02:28:40;;;;;;;;;;;;;;;;;;2105438;28;44339;-67
2021/05/04 02:29:41;;;;;;;;;;;;;;;;;;2105661;28;44373;-67
2021/05/04 02:30:43;;;;;;;;;;;;;;;;;;2104849;28;46593;-67
2021/05/04 02:31:44;;;;;;;;;;;;;;;;;;2105506;28;45400;-66
2021/05/04 02:32:45;;;;;;;;;;;;;;;;;;2097334;28;44209;-66
2021/05/04 02:33:45;;;;;;;;;;;;;;;;;;2097318;28;46400;-67
2021/05/04 02:34:46;;;;;;;;;;;;;;;;;;2105550;28;45211;-66
2021/05/04 02:35:47;;;;;;;;;;;;;;;;;;2106190;28;45394;-68
2021/05/04 02:36:48;;;;;;;;;;;;;;;;;;2105712;28;45077;-66
2021/05/04 02:37:49;;;;;;;;;;;;;;;;;;2105615;28;44706;-66
2021/05/04 02:38:50;;;;;;;;;;;;;;;;;;2113994;28;44153;-66
2021/05/04 02:39:51;;;;;;;;;;;;;;;;;;2113951;28;44204;-66
2021/05/04 02:40:52;;;;;;;;;;;;;;;;;;2105784;28;45572;-66
2021/05/04 02:41:53;;;;;;;;;;;;;;;;;;2105994;28;45397;-66
2021/05/04 02:42:54;;;;;;;;;;;;;;;;;;2105402;28;45704;-67
2021/05/04 02:43:54;;;;;;;;;;;;;;;;;;2105495;28;46778;-66
2021/05/04 02:44:55;;;;;;;;;;;;;;;;;;2105541;28;44921;-66
2021/05/04 02:45:56;;;;;;;;;;;;;;;;;;2105364;28;46886;-67
2021/05/04 02:46:58;;;;;;;;;;;;;;;;;;2105551;28;45920;-66
2021/05/04 02:47:59;;;;;;;;;;;;;;;;;;2105575;28;47045;-67
2021/05/04 02:49:00;;;;;;;;;;;;;;;;;;2106782;28;45715;-66
2021/05/04 02:50:01;;;;;;;;;;;;;;;;;;2106639;28;45543;-66
2021/05/04 02:51:02;;;;;;;;;;;;;;;;;;2107507;28;45387;-66
2021/05/04 02:52:03;;;;;;;;;;;;;;;;;;2107276;28;45451;-66
2021/05/04 02:53:04;;;;;;;;;;;;;;;;;;2107570;28;46859;-65
2021/05/04 02:54:05;;;;;;;;;;;;;;;;;;2106667;28;47184;-67
2021/05/04 02:55:06;;;;;;;;;;;;;;;;;;2098744;28;44785;-67
2021/05/04 02:56:07;;;;;;;;;;;;;;;;;;2098471;28;45698;-69
2021/05/04 02:57:08;;;;;;;;;;;;;;;;;;2106860;28;44426;-67
2021/05/04 02:58:10;;;;;;;;;;;;;;;;;;2106817;28;44750;-66
2021/05/04 02:59:11;;;;;;;;;;;;;;;;;;2106868;28;45730;-68
2021/05/04 03:00:12;;;;;;;;;;;;;;;;;;2098245;28;46146;-68
2021/05/04 03:01:13;;;;;;;;;;;;;;;;;;2098667;28;44727;-68
2021/05/04 03:02:14;;;;;;;;;;;;;;;;;;2106512;28;47235;-68
2021/05/04 03:03:15;;;;;;;;;;;;;;;;;;2106851;28;46442;-68
2021/05/04 03:04:16;;;;;;;;;;;;;;;;;;2106709;28;47183;-68
2021/05/04 03:05:17;;;;;;;;;;;;;;;;;;2115574;28;45152;-68
2021/05/04 03:06:18;;;;;;;;;;;;;;;;;;2106747;28;47136;-67
2021/05/04 03:07:19;;;;;;;;;;;;;;;;;;2106891;28;45706;-67
2021/05/04 03:08:19;;;;;;;;;;;;;;;;;;2106405;28;47173;-66
2021/05/04 03:09:20;;;;;;;;;;;;;;;;;;2098620;28;47018;-66
2021/05/04 03:10:22;;;;;;;;;;;;;;;;;;2106500;28;42939;-67
2021/05/04 03:11:24;;;;;;;;;;;;;;;;;;2106622;28;45583;-67
2021/05/04 03:12:24;;;;;;;;;;;;;;;;;;2106721;28;45345;-67
2021/05/04 03:13:29;;;;;;;;;;;;;;;;;;2106826;28;44138;-67
2021/05/04 03:14:30;;;;;;;;;;;;;;;;;;2106871;28;42317;-67
2021/05/04 03:15:31;;;;;;;;;;;;;;;;;;2098535;28;43120;-66
2021/05/04 03:16:31;;;;;;;;;;;;;;;;;;2106737;28;42921;-66
2021/05/04 03:17:33;;;;;;;;;;;;;;;;;;2107385;28;43037;-67
2021/05/04 03:18:34;;;;;;;;;;;;;;;;;;2106632;28;45297;-66
2021/05/04 03:19:35;;;;;;;;;;;;;;;;;;2098811;28;43480;-66
2021/05/04 03:20:40;;;;;;;;;;;;;;;;;;2098062;28;45197;-68
2021/05/04 03:21:40;;;;;;;;;;;;;;;;;;2106693;28;42809;-68
2021/05/04 03:22:42;;;;;;;;;;;;;;;;;;2106621;28;44123;-68
2021/05/04 03:23:42;;;;;;;;;;;;;;;;;;2106832;28;44387;-68
2021/05/04 03:24:43;;;;;;;;;;;;;;;;;;2098116;28;43512;-68
2021/05/04 03:25:45;;;;;;;;;;;;;;;;;;2098463;28;45355;-68
2021/05/04 03:26:46;;;;;;;;;;;;;;;;;;2106507;28;45234;-68
2021/05/04 03:27:47;;;;;;;;;;;;;;;;;;2106774;28;44126;-68
2021/05/04 03:28:48;;;;;;;;;;;;;;;;;;2106381;28;45375;-67
2021/05/04 03:29:49;;;;;;;;;;;;;;;;;;2106797;28;43849;-68
2021/05/04 03:30:49;;;;;;;;;;;;;;;;;;2098538;28;43133;-68
2021/05/04 03:31:51;;;;;;;;;;;;;;;;;;2098175;28;46835;-68
2021/05/04 03:32:52;;;;;;;;;;;;;;;;;;2106531;28;46520;-68
2021/05/04 03:33:53;;;;;;;;;;;;;;;;;;2107390;28;44211;-68
2021/05/04 03:34:54;;;;;;;;;;;;;;;;;;2107379;28;45500;-68
2021/05/04 03:35:55;;;;;;;;;;;;;;;;;;2106603;28;46485;-68
2021/05/04 03:36:56;;;;;;;;;;;;;;;;;;2106600;28;46467;-68
2021/05/04 03:37:57;;;;;;;;;;;;;;;;;;2106330;28;45436;-69
2021/05/04 03:38:58;;;;;;;;;;;;;;;;;;2106734;28;45396;-68
2021/05/04 03:39:59;;;;;;;;;;;;;;;;;;2106171;28;46685;-68
2021/05/04 03:41:00;;;;;;;;;;;;;;;;;;2107271;28;45498;-68
2021/05/04 03:42:01;;;;;;;;;;;;;;;;;;2107043;28;46422;-68
2021/05/04 03:43:02;;;;;;;;;;;;;;;;;;2106674;28;46231;-68
2021/05/04 03:44:03;;;;;;;;;;;;;;;;;;2098317;28;44079;-68
2021/05/04 03:45:05;;;;;;;;;;;;;;;;;;2098299;28;47444;-67
2021/05/04 03:46:06;;;;;;;;;;;;;;;;;;2106987;28;44117;-67
2021/05/04 03:47:10;;;;;;;;;;;;;;;;;;2106416;28;44349;-67
2021/05/04 03:48:11;;;;;;;;;;;;;;;;;;2098780;28;43175;-67
2021/05/04 03:49:12;;;;;;;;;;;;;;;;;;2106943;28;43265;-67
2021/05/04 03:50:15;;;;;;;;;;;;;;;;;;2114806;28;43943;-67
2021/05/04 03:51:15;;;;;;;;;;;;;;;;;;2114706;28;46871;-65
2021/05/04 03:52:17;;;;;;;;;;;;;;;;;;2106535;28;44172;-68
2021/05/04 03:53:18;;;;;;;;;;;;;;;;;;2136379;22;45548;-63
2021/05/04 03:54:19;;;;;;;;;;;;;;;;;;2089544;28;45305;-63
2021/05/04 03:55:20;;;;;;;;;;;;;;;;;;2098125;28;43245;-62
2021/05/04 03:56:21;;;;;;;;;;;;;;;;;;2080891;28;43603;-63
2021/05/04 03:57:22;;;;;;;;;;;;;;;;;;2081589;28;44052;-62
2021/05/04 03:58:23;;;;;;;;;;;;;;;;;;2089637;28;46908;-64
2021/05/04 03:59:23;;;;;;;;;;;;;;;;;;2089211;28;46990;-64
2021/05/04 04:00:24;;;;;;;;;;;;;;;;;;2089534;28;46144;-64
2021/05/04 04:01:25;;;;;;;;;;;;;;;;;;2089401;28;45711;-63
2021/05/04 04:02:26;;;;;;;;;;;;;;;;;;2089664;28;47076;-63
2021/05/04 04:03:27;;;;;;;;;;;;;;;;;;2089362;28;46250;-63
2021/05/04 04:04:29;;;;;;;;;;;;;;;;;;2081071;28;45780;-63
2021/05/04 04:05:30;;;;;;;;;;;;;;;;;;2081490;28;45844;-64
2021/05/04 04:06:31;;;;;;;;;;;;;;;;;;2089290;28;44834;-63
2021/05/04 04:07:32;;;;;;;;;;;;;;;;;;2081445;28;47030;-63
2021/05/04 04:08:33;;;;;;;;;;;;;;;;;;2081029;28;45701;-63
2021/05/04 04:09:34;;;;;;;;;;;;;;;;;;2082106;28;45805;-63
2021/05/04 04:10:39;;;;;;;;;;;;;;;;;;2089290;28;46920;-63
2021/05/04 04:11:40;;;;;;;;;;;;;;;;;;2088881;28;46819;-63
2021/05/04 04:12:41;;;;;;;;;;;;;;;;;;2081381;28;45703;-63
2021/05/04 04:13:42;;;;;;;;;;;;;;;;;;2081505;28;45689;-62
2021/05/04 04:14:42;;;;;;;;;;;;;;;;;;2089339;28;46948;-64
2021/05/04 04:15:45;;;;;;;;;;;;;;;;;;2089583;28;45160;-63
2021/05/04 04:16:46;;;;;;;;;;;;;;;;;;2084572;28;44061;-63
2021/05/04 04:17:47;;;;;;;;;;;;;;;;;;2098003;28;42069;-64
2021/05/04 04:18:48;;;;;;;;;;;;;;;;;;2097447;28;45372;-63
2021/05/04 04:19:49;;;;;;;;;;;;;;;;;;2097934;28;45219;-63
2021/05/04 04:20:50;;;;;;;;;;;;;;;;;;2097592;28;45421;-63
2021/05/04 04:21:50;;;;;;;;;;;;;;;;;;2097745;28;44482;-64
2021/05/04 04:22:51;;;;;;;;;;;;;;;;;;2097862;28;44244;-63
2021/05/04 04:23:52;;;;;;;;;;;;;;;;;;2097532;28;45491;-64
2021/05/04 04:24:54;;;;;;;;;;;;;;;;;;2097952;28;43442;-64
2021/05/04 04:25:55;;;;;;;;;;;;;;;;;;2097751;28;44249;-64
2021/05/04 04:26:56;;;;;;;;;;;;;;;;;;2089701;28;45261;-63
2021/05/04 04:27:57;;;;;;;;;;;;;;;;;;2097949;28;44053;-63
2021/05/04 04:28:58;;;;;;;;;;;;;;;;;;2097866;28;45528;-62
2021/05/04 04:29:59;;;;;;;;;;;;;;;;;;2097803;28;45262;-63
2021/05/04 04:31:00;;;;;;;;;;;;;;;;;;2097758;28;43008;-63
2021/05/04 04:32:01;;;;;;;;;;;;;;;;;;2098263;28;42806;-63
2021/05/04 04:33:04;;;;;;;;;;;;;;;;;;2098493;28;43907;-63
2021/05/04 04:34:06;;;;;;;;;;;;;;;;;;2098681;28;44560;-63
2021/05/04 04:35:08;;;;;;;;;;;;;;;;;;2099019;28;45491;-63
2021/05/04 04:36:09;;;;;;;;;;;;;;;;;;2098187;28;43304;-63
2021/05/04 04:37:10;;;;;;;;;;;;;;;;;;2098036;28;45267;-63
2021/05/04 04:38:11;;;;;;;;;;;;;;;;;;2097831;28;42417;-63
2021/05/04 04:39:15;;;;;;;;;;;;;;;;;;2097993;28;46845;-63
2021/05/04 04:40:16;;;;;;;;;;;;;;;;;;2098342;28;43011;-63
2021/05/04 04:41:17;;;;;;;;;;;;;;;;;;2099744;28;46957;-63
2021/05/04 04:42:19;;;;;;;;;;;;;;;;;;2099797;28;45562;-63
2021/05/04 04:43:20;;;;;;;;;;;;;;;;;;2098525;28;44147;-63
2021/05/04 04:44:21;;;;;;;;;;;;;;;;;;2099003;28;47302;-63
2021/05/04 04:45:23;;;;;;;;;;;;;;;;;;2098213;28;47604;-63
2021/05/04 04:46:24;;;;;;;;;;;;;;;;;;2097931;28;45822;-63
2021/05/04 04:47:25;;;;;;;;;;;;;;;;;;2098580;28;41840;-63
2021/05/04 04:48:27;;;;;;;;;;;;;;;;;;2098219;28;44511;-63
2021/05/04 04:49:28;;;;;;;;;;;;;;;;;;2097488;28;44316;-63
2021/05/04 04:50:29;;;;;;;;;;;;;;;;;;2089742;28;43783;-63
2021/05/04 04:51:30;;;;;;;;;;;;;;;;;;2097540;28;46894;-62
2021/05/04 04:52:30;;;;;;;;;;;;;;;;;;2098064;28;46372;-62
2021/05/04 04:53:31;;;;;;;;;;;;;;;;;;2097289;28;45652;-62
2021/05/04 04:54:33;;;;;;;;;;;;;;;;;;2097528;28;44109;-63
2021/05/04 04:55:34;;;;;;;;;;;;;;;;;;2098248;28;44107;-63
2021/05/04 04:56:35;;;;;;;;;;;;;;;;;;2098144;28;46435;-63
2021/05/04 04:57:36;;;;;;;;;;;;;;;;;;2097998;28;46502;-63
2021/05/04 04:58:37;;;;;;;;;;;;;;;;;;2089235;28;44481;-62
2021/05/04 04:59:38;;;;;;;;;;;;;;;;;;2097562;28;45836;-62
2021/05/04 05:00:39;;;;;;;;;;;;;;;;;;2097549;28;44869;-63
2021/05/04 05:01:40;;;;;;;;;;;;;;;;;;2098101;28;45398;-63
2021/05/04 05:02:40;;;;;;;;;;;;;;;;;;2097946;28;44491;-63
2021/05/04 05:03:41;;;;;;;;;;;;;;;;;;2097435;28;47271;-64
2021/05/04 05:04:43;;;;;;;;;;;;;;;;;;2097132;28;47225;-64
2021/05/04 05:05:44;;;;;;;;;;;;;;;;;;2097514;28;46961;-65
2021/05/04 05:06:45;;;;;;;;;;;;;;;;;;2089210;28;45557;-65
2021/05/04 05:07:46;;;;;;;;;;;;;;;;;;2089281;28;47009;-65
2021/05/04 05:08:50;;;;;;;;;;;;;;;;;;2097376;28;44446;-64
2021/05/04 05:09:51;;;;;;;;;;;;;;;;;;2097585;28;47240;-64
2021/05/04 05:10:52;;;;;;;;;;;;;;;;;;2096710;28;45684;-64
2021/05/04 05:11:53;;;;;;;;;;;;;;;;;;2098135;28;46201;-64
2021/05/04 05:12:54;;;;;;;;;;;;;;;;;;2097365;28;45845;-64
2021/05/04 05:13:56;;;;;;;;;;;;;;;;;;2097578;28;45647;-63
2021/05/04 05:15:00;;;;;;;;;;;;;;;;;;2097580;28;45964;-63
2021/05/04 05:16:01;;;;;;;;;;;;;;;;;;2097536;28;45684;-63
2021/05/04 05:17:02;;;;;;;;;;;;;;;;;;2097593;28;45691;-63
2021/05/04 05:18:05;;;;;;;;;;;;;;;;;;2097684;28;45194;-63
2021/05/04 05:19:07;;;;;;;;;;;;;;;;;;2097836;28;45877;-63
2021/05/04 05:20:08;;;;;;;;;;;;;;;;;;2097911;28;45692;-63
2021/05/04 05:21:10;;;;;;;;;;;;;;;;;;2097884;28;42851;-63
2021/05/04 05:22:11;;;;;;;;;;;;;;;;;;2097384;28;45087;-63
2021/05/04 05:23:12;;;;;;;;;;;;;;;;;;2097285;28;44094;-63
2021/05/04 05:24:13;;;;;;;;;;;;;;;;;;2097524;28;44078;-63
2021/05/04 05:25:14;;;;;;;;;;;;;;;;;;2098230;28;45679;-63
2021/05/04 05:26:18;;;;;;;;;;;;;;;;;;2097318;28;46334;-62
2021/05/04 05:27:19;;;;;;;;;;;;;;;;;;2089719;28;45180;-63
2021/05/04 05:28:20;;;;;;;;;;;;;;;;;;2097382;28;43194;-63
2021/05/04 05:29:21;;;;;;;;;;;;;;;;;;2089206;28;45382;-62
2021/05/04 05:30:22;;;;;;;;;;;;;;;;;;2097372;28;44509;-63
2021/05/04 05:31:26;;;;;;;;;;;;;;;;;;2097400;28;44213;-63
2021/05/04 05:32:26;;;;;;;;;;;;;;;;;;2098147;28;43942;-63
2021/05/04 05:33:27;;;;;;;;;;;;;;;;;;2097374;28;44087;-63
2021/05/04 05:34:28;;;;;;;;;;;;;;;;;;2089234;28;44204;-63
2021/05/04 05:35:30;;;;;;;;;;;;;;;;;;2098066;28;45479;-63
2021/05/04 05:36:31;;;;;;;;;;;;;;;;;;2097905;28;44994;-62
2021/05/04 05:37:32;;;;;;;;;;;;;;;;;;2097985;28;45427;-62
2021/05/04 05:38:33;;;;;;;;;;;;;;;;;;2097884;28;45557;-62
2021/05/04 05:39:42;;;;;;;;;;;;;;;;;;2097915;28;44177;-63
2021/05/04 05:40:43;;;;;;;;;;;;;;;;;;2098381;28;42855;-63
2021/05/04 05:41:44;;;;;;;;;;;;;;;;;;2098547;28;44146;-63
2021/05/04 05:42:45;;;;;;;;;;;;;;;;;;2097872;28;46584;-63
2021/05/04 05:43:45;;;;;;;;;;;;;;;;;;2097786;28;46664;-63
2021/05/04 05:44:46;;;;;;;;;;;;;;;;;;2097528;28;43937;-63
2021/05/04 05:45:48;;;;;;;;;;;;;;;;;;2097567;28;46903;-63
2021/05/04 05:46:51;;;;;;;;;;;;;;;;;;2097901;28;45397;-63
2021/05/04 05:47:52;;;;;;;;;;;;;;;;;;2097868;28;46078;-65
2021/05/04 05:48:53;;;;;;;;;;;;;;;;;;2097292;28;45192;-62
2021/05/04 05:49:54;;;;;;;;;;;;;;;;;;2098265;28;46500;-62
2021/05/04 05:50:55;;;;;;;;;;;;;;;;;;2097539;28;45932;-64
2021/05/04 05:51:56;;;;;;;;;;;;;;;;;;2097487;28;45714;-64
2021/05/04 05:52:57;;;;;;;;;;;;;;;;;;2097538;28;44312;-63
2021/05/04 05:53:58;;;;;;;;;;;;;;;;;;2097178;28;45794;-64
2021/05/04 05:54:59;;;;;;;;;;;;;;;;;;2097628;28;44249;-64
2021/05/04 05:56:00;;;;;;;;;;;;;;;;;;2097614;28;45278;-64
2021/05/04 05:57:01;;;;;;;;;;;;;;;;;;2097272;28;45841;-64
2021/05/04 05:58:02;;;;;;;;;;;;;;;;;;2098099;28;46315;-64
2021/05/04 05:59:03;;;;;;;;;;;;;;;;;;2097973;28;45572;-64
2021/05/04 06:00:05;;;;;;;;;;;;;;;;;;2097393;28;46559;-64
2021/05/04 06:01:06;;;;;;;;;;;;;;;;;;2097512;28;43000;-64
2021/05/04 06:02:07;;;;;;;;;;;;;;;;;;2097597;28;43623;-64
2021/05/04 06:03:08;;;;;;;;;;;;;;;;;;2097289;28;46600;-63
2021/05/04 06:04:09;;;;;;;;;;;;;;;;;;2098271;28;45447;-63
2021/05/04 06:05:10;;;;;;;;;;;;;;;;;;2097051;28;44478;-63
2021/05/04 06:06:11;;;;;;;;;;;;;;;;;;2097341;28;47027;-63
2021/05/04 06:07:12;;;;;;;;;;;;;;;;;;2097808;28;45907;-63
2021/05/04 06:08:13;;;;;;;;;;;;;;;;;;2097297;28;47016;-63
2021/05/04 06:09:14;;;;;;;;;;;;;;;;;;2097205;28;45997;-64
2021/05/04 06:10:15;;;;;;;;;;;;;;;;;;2097997;28;45646;-63
2021/05/04 06:11:16;;;;;;;;;;;;;;;;;;2097118;28;44585;-63
2021/05/04 06:12:17;;;;;;;;;;;;;;;;;;2088876;28;45855;-63
2021/05/04 06:13:18;;;;;;;;;;;;;;;;;;2096960;28;46903;-63
2021/05/04 06:14:19;;;;;;;;;;;;;;;;;;2097254;28;45832;-63
2021/05/04 06:15:20;;;;;;;;;;;;;;;;;;2097881;28;44644;-63
2021/05/04 06:16:21;;;;;;;;;;;;;;;;;;2097940;28;43244;-63
2021/05/04 06:17:22;;;;;;;;;;;;;;;;;;2097097;28;46978;-63
2021/05/04 06:18:23;;;;;;;;;;;;;;;;;;2097169;28;45893;-63
2021/05/04 06:19:24;;;;;;;;;;;;;;;;;;2097912;28;45812;-63
2021/05/04 06:20:25;;;;;;;;;;;;;;;;;;2097721;28;46879;-63
2021/05/04 06:21:26;;;;;;;;;;;;;;;;;;2097102;28;45914;-63
2021/05/04 06:22:26;;;;;;;;;;;;;;;;;;2098176;28;45883;-63
2021/05/04 06:23:27;;;;;;;;;;;;;;;;;;2098521;28;45956;-63
2021/05/04 06:24:28;;;;;;;;;;;;;;;;;;2099060;28;45745;-63
2021/05/04 06:25:29;;;;;;;;;;;;;;;;;;2099042;28;45601;-63
2021/05/04 06:26:30;;;;;;;;;;;;;;;;;;2099144;28;43714;-63
2021/05/04 06:27:31;;;;;;;;;;;;;;;;;;2098743;28;43909;-63
2021/05/04 06:28:33;;;;;;;;;;;;;;;;;;2098767;28;42432;-63
2021/05/04 06:29:34;;;;;;;;;;;;;;;;;;2098679;28;45280;-63
2021/05/04 06:30:36;;;;;;;;;;;;;;;;;;2090477;28;43618;-63
2021/05/04 06:31:37;;;;;;;;;;;;;;;;;;2098594;28;44259;-63
2021/05/04 06:32:39;;;;;;;;;;;;;;;;;;2098586;28;44556;-63
2021/05/04 06:33:40;;;;;;;;;;;;;;;;;;2098529;28;45710;-63
2021/05/04 06:34:42;;;;;;;;;;;;;;;;;;2098339;28;44222;-63
2021/05/04 06:35:44;;;;;;;;;;;;;;;;;;2090382;28;44499;-63
2021/05/04 06:36:44;;;;;;;;;;;;;;;;;;2090711;28;42328;-63
2021/05/04 06:37:46;;;;;;;;;;;;;;;;;;2090186;28;45034;-63
2021/05/04 06:38:47;;;;;;;;;;;;;;;;;;2098571;28;41380;-63
2021/05/04 06:39:48;;;;;;;;;;;;;;;;;;2098699;28;42962;-64
2021/05/04 06:40:50;;;;;;;;;;;;;;;;;;2098579;28;42899;-63
2021/05/04 06:41:51;;;;;;;;;;;;;;;;;;2098523;28;44251;-64
2021/05/04 06:42:52;;;;;;;;;;;;;;;;;;2098835;28;42434;-62
2021/05/04 06:43:53;;;;;;;;;;;;;;;;;;2098373;28;42775;-63
2021/05/04 06:44:54;;;;;;;;;;;;;;;;;;2098308;28;45264;-62
2021/05/04 06:45:55;;;;;;;;;;;;;;;;;;2099248;28;45351;-63
2021/05/04 06:46:56;;;;;;;;;;;;;;;;;;2097007;28;45554;-63
2021/05/04 06:47:57;;;;;;;;;;;;;;;;;;2097296;28;45511;-63
2021/05/04 06:48:59;;;;;;;;;;;;;;;;;;2098195;28;45843;-63
2021/05/04 06:50:00;;;;;;;;;;;;;;;;;;2099209;28;45404;-63
2021/05/04 06:51:05;;;;;;;;;;;;;;;;;;2099150;28;46661;-63
2021/05/04 06:52:06;;;;;;;;;;;;;;;;;;2098953;28;45777;-63
2021/05/04 06:53:07;;;;;;;;;;;;;;;;;;2098003;28;45397;-63
2021/05/04 06:54:08;;;;;;;;;;;;;;;;;;2089874;28;46823;-63
2021/05/04 06:55:09;;;;;;;;;;;;;;;;;;2098517;28;44210;-62
2021/05/04 06:56:10;;;;;;;;;;;;;;;;;;2098567;28;44130;-63
2021/05/04 06:57:11;;;;;;;;;;;;;;;;;;2097895;28;44182;-63
2021/05/04 06:58:13;;;;;;;;;;;;;;;;;;2098328;28;44247;-63